Time;durP1;ratioP1;P1;durP2;ratioP2;P2;SDS_P1;SDS_P2;PMS_P1;PMS_P2;Temp;Humidity;BMP_temperature;BMP_pressure;BME280_temperature;BME280_humidity;BME280_pressure;Samples;Min_cycle;Max_cycle;Signal;HPM_P1;HPM_P2
2021/01/08 00:02:18;;;;;;;9.87;5.87;;;4.50;99.90;;;;;;5043553;28;20189;-89
2021/01/08 00:04:44;;;;;;;7.27;6.10;;;4.40;99.90;;;;;;5053869;28;20198;-88
2021/01/08 00:07:11;;;;;;;11.60;6.57;;;4.50;99.90;;;;;;5027342;28;20190;-89
2021/01/08 00:09:36;;;;;;;11.40;6.63;;;4.50;99.90;;;;;;5044085;28;20269;-89
2021/01/08 00:12:02;;;;;;;10.00;6.13;;;4.60;99.90;;;;;;5028523;28;20270;-87
2021/01/08 00:14:28;;;;;;;12.40;6.37;;;4.50;99.90;;;;;;5021697;28;20234;-88
2021/01/08 00:16:53;;;;;;;14.03;6.30;;;4.40;99.90;;;;;;5043333;28;20167;-88
2021/01/08 00:19:19;;;;;;;14.47;7.50;;;4.40;99.90;;;;;;5059122;28;20234;-88
2021/01/08 00:21:45;;;;;;;8.30;5.80;;;4.30;99.90;;;;;;5042915;28;20182;-89
2021/01/08 00:24:14;;;;;;;7.27;6.03;;;4.40;99.90;;;;;;5042795;28;20529;-89
2021/01/08 00:26:41;;;;;;;12.23;6.83;;;4.40;99.90;;;;;;5058771;28;20569;-89
2021/01/08 00:29:11;;;;;;;7.83;6.57;;;4.40;99.90;;;;;;5058731;28;20174;-89
2021/01/08 00:31:42;;;;;;;10.60;7.43;;;4.60;99.90;;;;;;5058575;28;20186;-88
2021/01/08 00:34:13;;;;;;;11.43;6.53;;;4.60;99.90;;;;;;5042526;28;20175;-88
2021/01/08 00:36:50;;;;;;;10.23;6.67;;;4.40;99.90;;;;;;5040948;28;20171;-89
2021/01/08 00:39:17;;;;;;;13.87;7.40;;;4.20;99.90;;;;;;5057084;28;20701;-88
2021/01/08 00:41:43;;;;;;;12.70;6.90;;;4.30;99.90;;;;;;5058854;28;20296;-89
2021/01/08 00:44:09;;;;;;;9.80;6.63;;;4.20;99.90;;;;;;5042226;28;20633;-89
2021/01/08 00:46:35;;;;;;;9.70;6.83;;;4.10;99.90;;;;;;5058003;28;20327;-89
2021/01/08 00:49:05;;;;;;;9.53;6.87;;;4.00;99.90;;;;;;5028390;28;20210;-89
2021/01/08 00:51:35;;;;;;;8.23;7.43;;;3.80;99.90;;;;;;5035442;28;20302;-89
2021/01/08 00:54:01;;;;;;;12.57;7.23;;;4.00;99.90;;;;;;5039171;28;20178;-89
2021/01/08 00:56:30;;;;;;;12.97;7.60;;;4.10;99.90;;;;;;5050524;28;20174;-88
2021/01/08 00:58:55;;;;;;;16.17;7.57;;;4.00;99.90;;;;;;5038528;28;20199;-89
2021/01/08 01:01:22;;;;;;;10.07;7.53;;;4.00;99.90;;;;;;5005391;28;20202;-89
2021/01/08 01:03:48;;;;;;;15.53;7.87;;;3.90;99.90;;;;;;5038414;28;20202;-88
2021/01/08 01:06:22;;;;;;;13.70;8.40;;;3.80;99.90;;;;;;5021241;28;20179;-89
2021/01/08 01:08:48;;;;;;;12.37;7.93;;;3.90;99.90;;;;;;5041882;28;20189;-89
2021/01/08 01:11:18;;;;;;;10.90;7.93;;;4.00;99.90;;;;;;5058821;28;20171;-89
2021/01/08 01:13:45;;;;;;;14.80;8.47;;;4.00;99.90;;;;;;5042201;28;20167;-89
2021/01/08 01:16:12;;;;;;;9.30;7.43;;;3.90;99.90;;;;;;5025353;28;20617;-88
2021/01/08 01:18:38;;;;;;;12.13;7.53;;;3.90;99.90;;;;;;5051750;28;20722;-87
2021/01/08 01:21:04;;;;;;;9.67;7.97;;;3.70;99.90;;;;;;5021671;28;20179;-88
2021/01/08 01:23:29;;;;;;;10.50;7.93;;;3.70;99.90;;;;;;5021913;28;20167;-88
2021/01/08 01:25:55;;;;;;;10.03;7.97;;;3.80;99.90;;;;;;5005355;28;20179;-88
2021/01/08 01:28:21;;;;;;;15.73;7.83;;;3.80;99.90;;;;;;5045030;28;20255;-88
2021/01/08 01:30:46;;;;;;;11.17;8.60;;;4.00;99.90;;;;;;5024608;28;20185;-88
2021/01/08 01:33:12;;;;;;;11.30;8.13;;;4.10;99.90;;;;;;5021514;28;20549;-88
2021/01/08 01:35:38;;;;;;;12.33;7.57;;;4.20;99.90;;;;;;5043470;28;20162;-87
2021/01/08 01:38:03;;;;;;;9.97;7.97;;;4.20;99.90;;;;;;5040032;28;20194;-88
2021/01/08 01:40:32;;;;;;;12.53;7.83;;;4.10;99.90;;;;;;5004947;28;20688;-87
2021/01/08 01:42:58;;;;;;;15.03;8.13;;;4.10;99.90;;;;;;5031525;28;20227;-88
2021/01/08 01:45:24;;;;;;;17.80;7.97;;;4.20;99.90;;;;;;5051137;28;20183;-88
2021/01/08 01:47:49;;;;;;;11.47;7.87;;;4.20;99.90;;;;;;5065029;28;20183;-88
2021/01/08 01:50:15;;;;;;;11.37;7.40;;;4.20;99.90;;;;;;5067335;28;20175;-87
2021/01/08 01:52:41;;;;;;;9.83;7.60;;;4.20;99.90;;;;;;5024584;28;20198;-87
2021/01/08 01:55:07;;;;;;;13.00;8.20;;;4.40;99.90;;;;;;5057228;28;20205;-87
2021/01/08 01:57:33;;;;;;;8.33;7.47;;;4.40;99.90;;;;;;5024548;28;20179;-87
2021/01/08 01:59:59;;;;;;;19.63;8.30;;;4.40;99.90;;;;;;5061651;28;20222;-87
2021/01/08 02:02:37;;;;;;;10.30;8.03;;;4.30;99.90;;;;;;5080412;28;20175;-88
2021/01/08 02:05:06;;;;;;;11.90;7.87;;;4.30;99.90;;;;;;5080475;28;20186;-87
2021/01/08 02:07:36;;;;;;;11.70;8.73;;;4.30;99.90;;;;;;5042890;28;20193;-87
2021/01/08 02:10:06;;;;;;;12.23;7.97;;;4.50;99.90;;;;;;5056515;28;20181;-88
2021/01/08 02:12:34;;;;;;;11.67;7.40;;;4.70;99.90;;;;;;5055698;28;20167;-87
2021/01/08 02:15:02;;;;;;;16.73;8.70;;;4.60;99.90;;;;;;5054068;28;20192;-87
2021/01/08 02:17:29;;;;;;;14.17;8.63;;;4.60;99.90;;;;;;5038703;28;20177;-87
2021/01/08 02:20:05;;;;;;;12.93;8.70;;;4.40;99.90;;;;;;5020529;28;20207;-88
2021/01/08 02:23:10;;;;;;;12.10;9.07;;;4.40;99.90;;;;;;5017225;28;20538;-88
2021/01/08 02:25:38;;;;;;;15.50;9.77;;;4.10;99.90;;;;;;5016415;28;20191;-88
2021/01/08 02:28:18;;;;;;;10.33;9.23;;;4.10;99.90;;;;;;5033473;28;20167;-87
2021/01/08 02:30:45;;;;;;;16.33;8.93;;;4.00;99.90;;;;;;5033418;28;20172;-88
2021/01/08 02:33:12;;;;;;;17.93;8.60;;;3.70;99.90;;;;;;5021276;28;20199;-88
2021/01/08 02:35:39;;;;;;;16.37;9.43;;;3.70;99.90;;;;;;4984774;28;20518;-88
2021/01/08 02:38:06;;;;;;;16.23;10.07;;;3.90;99.90;;;;;;5000858;28;20222;-88
2021/01/08 02:40:32;;;;;;;18.70;10.07;;;3.90;99.90;;;;;;5017110;28;20278;-88
2021/01/08 02:43:04;;;;;;;14.83;10.03;;;4.00;99.90;;;;;;5032803;28;20197;-88
2021/01/08 02:45:31;;;;;;;12.33;9.40;;;4.00;99.90;;;;;;5074325;28;20178;-88
2021/01/08 02:47:57;;;;;;;15.80;10.57;;;4.10;99.90;;;;;;5056613;28;20202;-88
2021/01/08 02:50:23;;;;;;;18.40;10.37;;;4.20;99.90;;;;;;5056777;28;20178;-88
2021/01/08 02:52:59;;;;;;;15.17;9.83;;;4.10;99.90;;;;;;5054798;28;20170;-85
2021/01/08 02:55:33;;;;;;;17.90;10.03;;;4.00;99.90;;;;;;5016626;28;20255;-87
2021/01/08 02:58:00;;;;;;;22.10;11.03;;;4.10;99.90;;;;;;5016535;28;20186;-88
2021/01/08 03:00:30;;;;;;;18.83;10.40;;;4.10;99.90;;;;;;5019939;28;20639;-87
2021/01/08 03:02:58;;;;;;;20.47;11.30;;;4.00;99.90;;;;;;5049583;28;20173;-87
2021/01/08 03:05:27;;;;;;;14.80;11.27;;;4.00;99.90;;;;;;5056261;28;20206;-87
2021/01/08 03:07:53;;;;;;;18.00;10.93;;;4.10;99.90;;;;;;5056082;28;20191;-87
2021/01/08 03:10:19;;;;;;;25.27;11.80;;;3.90;99.90;;;;;;5032717;28;20191;-87
2021/01/08 03:12:55;;;;;;;20.43;12.27;;;3.90;99.90;;;;;;5050637;28;20167;-87
2021/01/08 03:15:20;;;;;;;19.03;11.70;;;4.00;99.90;;;;;;5056547;28;20170;-87
2021/01/08 03:17:46;;;;;;;28.90;12.17;;;3.90;99.90;;;;;;5056207;28;20171;-87
2021/01/08 03:20:12;;;;;;;24.93;12.20;;;3.90;99.90;;;;;;5056444;28;20175;-87
2021/01/08 03:22:38;;;;;;;18.80;11.93;;;3.70;99.90;;;;;;5056107;28;20175;-87
2021/01/08 03:25:04;;;;;;;23.50;13.53;;;3.60;99.90;;;;;;5033365;28;20221;-87
2021/01/08 03:27:30;;;;;;;24.47;12.63;;;3.60;99.90;;;;;;5036080;28;20171;-87
2021/01/08 03:29:56;;;;;;;21.07;12.37;;;3.70;99.90;;;;;;5021555;28;20183;-87
2021/01/08 03:32:21;;;;;;;20.30;13.10;;;3.80;99.90;;;;;;5023673;28;20185;-87
2021/01/08 03:34:47;;;;;;;22.07;13.47;;;3.80;99.90;;;;;;5020406;28;20255;-87
2021/01/08 03:37:13;;;;;;;28.40;13.37;;;3.80;99.90;;;;;;5040025;28;20168;-87
2021/01/08 03:39:38;;;;;;;21.53;13.40;;;3.90;99.90;;;;;;5020537;28;20235;-87
2021/01/08 03:42:07;;;;;;;20.47;12.10;;;3.90;99.90;;;;;;5020024;28;20184;-88
2021/01/08 03:44:32;;;;;;;20.90;12.73;;;4.00;99.90;;;;;;5040853;28;20183;-88
2021/01/08 03:46:58;;;;;;;21.87;13.37;;;3.90;99.90;;;;;;5023432;28;20183;-87
2021/01/08 03:49:24;;;;;;;25.60;13.30;;;4.00;99.90;;;;;;5023410;28;20182;-88
2021/01/08 03:51:49;;;;;;;27.37;14.47;;;4.20;99.90;;;;;;5039638;28;20233;-88
2021/01/08 03:54:15;;;;;;;24.60;13.97;;;4.30;99.90;;;;;;5011693;28;20266;-88
2021/01/08 03:56:40;;;;;;;21.17;12.53;;;4.20;99.90;;;;;;5054570;28;20163;-88
2021/01/08 03:59:06;;;;;;;23.77;13.87;;;4.20;99.90;;;;;;5024568;28;20560;-88
2021/01/08 04:01:32;;;;;;;20.20;13.47;;;4.40;99.90;;;;;;5024353;28;20215;-88
2021/01/08 04:03:57;;;;;;;23.50;14.70;;;4.60;99.90;;;;;;5008636;28;20568;-88
2021/01/08 04:06:23;;;;;;;22.13;13.73;;;4.70;99.90;;;;;;5028651;28;20195;-88
2021/01/08 04:08:49;;;;;;;28.50;14.47;;;4.70;99.90;;;;;;5031131;28;20159;-88
2021/01/08 04:11:14;;;;;;;22.70;13.13;;;4.50;99.90;;;;;;5047128;28;20163;-89
2021/01/08 04:13:40;;;;;;;20.77;14.47;;;4.50;99.90;;;;;;5047163;28;20159;-89
2021/01/08 04:16:06;;;;;;;32.60;15.10;;;4.60;99.90;;;;;;5027288;28;20156;-88
2021/01/08 04:18:31;;;;;;;24.57;14.30;;;4.60;99.90;;;;;;5059296;28;20212;-88
2021/01/08 04:20:57;;;;;;;22.70;13.90;;;4.60;99.90;;;;;;5037735;28;20206;-88
2021/01/08 04:23:23;;;;;;;22.70;14.50;;;4.70;99.90;;;;;;5004618;28;20172;-88
2021/01/08 04:25:49;;;;;;;26.07;13.23;;;4.60;99.90;;;;;;5029214;28;20183;-89
2021/01/08 04:28:14;;;;;;;20.93;14.27;;;4.50;99.90;;;;;;5064156;28;20243;-89
2021/01/08 04:30:40;;;;;;;24.93;14.63;;;4.50;99.90;;;;;;5083251;28;20162;-88
2021/01/08 04:33:05;;;;;;;24.43;14.50;;;4.30;99.90;;;;;;5026252;28;20199;-88
2021/01/08 04:35:31;;;;;;;26.77;14.23;;;4.20;99.90;;;;;;5004075;28;20180;-88
2021/01/08 04:37:57;;;;;;;23.77;13.50;;;4.10;99.90;;;;;;5020257;28;20182;-89
2021/01/08 04:40:23;;;;;;;26.47;14.83;;;4.10;99.90;;;;;;5036459;28;20526;-88
2021/01/08 04:42:48;;;;;;;18.00;13.27;;;4.20;99.90;;;;;;5018678;28;20273;-88
2021/01/08 04:45:15;;;;;;;28.47;15.50;;;4.30;99.90;;;;;;5019483;28;20219;-88
2021/01/08 04:47:43;;;;;;;26.20;13.93;;;4.40;99.90;;;;;;5043754;28;20175;-88
2021/01/08 04:50:09;;;;;;;26.23;14.00;;;4.20;99.90;;;;;;5058309;28;20206;-88
2021/01/08 04:52:35;;;;;;;30.87;14.97;;;4.30;99.90;;;;;;5058681;28;20282;-88
2021/01/08 04:55:01;;;;;;;23.13;14.60;;;4.20;99.90;;;;;;5076785;28;20212;-88
2021/01/08 04:57:29;;;;;;;27.10;14.70;;;4.20;99.90;;;;;;5045654;28;20167;-88
2021/01/08 04:59:54;;;;;;;24.63;14.63;;;3.90;99.90;;;;;;5041784;28;20223;-88
2021/01/08 05:02:20;;;;;;;26.87;15.57;;;3.90;99.90;;;;;;5031326;28;20196;-87
2021/01/08 05:04:47;;;;;;;25.37;14.23;;;3.90;99.90;;;;;;5034922;28;20172;-88
2021/01/08 05:07:12;;;;;;;27.83;15.47;;;4.10;99.90;;;;;;5018393;28;20290;-88
2021/01/08 05:09:38;;;;;;;21.40;13.63;;;4.00;99.90;;;;;;5018839;28;20215;-88
2021/01/08 05:12:04;;;;;;;20.80;14.33;;;4.00;99.90;;;;;;5018458;28;20183;-88
2021/01/08 05:14:31;;;;;;;27.73;14.27;;;4.00;99.90;;;;;;5002008;28;20172;-88
2021/01/08 05:16:57;;;;;;;26.77;14.47;;;4.10;99.90;;;;;;5034936;28;20510;-88
2021/01/08 05:19:24;;;;;;;22.03;13.50;;;4.20;99.90;;;;;;5005252;28;20203;-88
2021/01/08 05:21:55;;;;;;;21.40;14.40;;;4.30;99.90;;;;;;5038004;28;20679;-88
2021/01/08 05:24:24;;;;;;;26.57;13.97;;;4.30;99.90;;;;;;5021972;28;20195;-88
2021/01/08 05:26:53;;;;;;;23.53;14.30;;;4.30;99.90;;;;;;5038745;28;20167;-88
2021/01/08 05:29:18;;;;;;;20.93;13.40;;;4.30;99.90;;;;;;5021374;28;20658;-88
2021/01/08 05:31:47;;;;;;;21.40;14.10;;;4.30;99.90;;;;;;5037766;28;20172;-88
2021/01/08 05:34:13;;;;;;;21.20;13.67;;;4.20;99.90;;;;;;5021713;28;20221;-88
2021/01/08 05:36:38;;;;;;;28.20;14.93;;;4.30;99.90;;;;;;5037880;28;20171;-88
2021/01/08 05:39:05;;;;;;;22.37;13.93;;;4.30;99.90;;;;;;5004840;28;20207;-88
2021/01/08 05:41:32;;;;;;;32.57;14.63;;;4.10;99.90;;;;;;5046101;28;20705;-88
2021/01/08 05:43:59;;;;;;;25.57;13.53;;;4.00;99.90;;;;;;5058823;28;20224;-88
2021/01/08 05:46:28;;;;;;;22.67;13.80;;;3.90;99.90;;;;;;5057687;28;20166;-88
2021/01/08 05:48:58;;;;;;;25.20;14.60;;;3.90;99.90;;;;;;5057289;28;20209;-88
2021/01/08 05:51:26;;;;;;;23.60;14.17;;;3.80;99.90;;;;;;5038899;28;20190;-87
2021/01/08 05:53:53;;;;;;;23.07;14.17;;;4.00;99.90;;;;;;5037097;28;20174;-87
2021/01/08 05:56:22;;;;;;;26.73;15.13;;;4.10;99.90;;;;;;5044438;28;20544;-86
2021/01/08 05:58:49;;;;;;;24.63;14.53;;;4.20;99.90;;;;;;5057748;28;20269;-86
2021/01/08 06:01:16;;;;;;;28.77;16.10;;;4.20;99.90;;;;;;5042198;28;20551;-86
2021/01/08 06:03:44;;;;;;;28.10;14.97;;;4.30;99.90;;;;;;5053748;28;20252;-87
2021/01/08 06:06:11;;;;;;;29.87;16.17;;;4.20;99.90;;;;;;5044935;28;20175;-86
2021/01/08 06:08:41;;;;;;;27.63;15.10;;;4.10;99.90;;;;;;5037967;28;20530;-87
2021/01/08 06:11:12;;;;;;;24.87;15.67;;;4.00;99.90;;;;;;5029664;28;20164;-87
2021/01/08 06:13:39;;;;;;;22.50;15.03;;;4.10;99.90;;;;;;5027112;28;20175;-86
2021/01/08 06:16:05;;;;;;;39.60;16.00;;;4.30;99.90;;;;;;5024023;28;20194;-88
2021/01/08 06:18:37;;;;;;;25.10;15.63;;;4.30;99.90;;;;;;5040186;28;20198;-88
2021/01/08 06:21:05;;;;;;;24.53;15.83;;;4.40;99.90;;;;;;5074733;28;20162;-88
2021/01/08 06:23:52;;;;;;;27.63;15.90;;;4.40;99.90;;;;;;5056771;28;20261;-88
2021/01/08 06:26:19;;;;;;;34.73;15.43;;;4.40;99.90;;;;;;5057230;28;20181;-88
2021/01/08 06:28:47;;;;;;;28.17;15.43;;;4.30;99.90;;;;;;5057160;28;20639;-88
2021/01/08 06:31:22;;;;;;;29.70;16.70;;;4.30;99.90;;;;;;5040408;28;20200;-88
2021/01/08 06:34:08;;;;;;;36.67;15.53;;;4.30;99.90;;;;;;5069851;28;20178;-88
2021/01/08 06:36:34;;;;;;;28.67;15.37;;;4.30;99.90;;;;;;5080883;28;20162;-88
2021/01/08 06:39:06;;;;;;;34.37;16.67;;;4.20;99.90;;;;;;5081080;28;20194;-88
2021/01/08 06:41:32;;;;;;;28.50;16.97;;;4.30;99.90;;;;;;5054290;28;20248;-88
2021/01/08 06:44:04;;;;;;;28.47;16.70;;;4.40;99.90;;;;;;5037008;28;20167;-88
2021/01/08 06:46:39;;;;;;;26.63;16.83;;;4.40;99.90;;;;;;5043106;28;20173;-88
2021/01/08 06:49:07;;;;;;;27.70;16.07;;;4.40;99.90;;;;;;5057476;28;20218;-88
2021/01/08 06:51:38;;;;;;;31.20;16.93;;;4.50;99.90;;;;;;5070616;28;20254;-89
2021/01/08 06:54:11;;;;;;;33.03;16.30;;;4.50;99.90;;;;;;5063798;28;20215;-88
2021/01/08 06:56:42;;;;;;;28.17;16.20;;;4.50;99.90;;;;;;5066280;28;20167;-88
2021/01/08 06:59:09;;;;;;;27.07;16.03;;;4.50;99.90;;;;;;5037112;28;20278;-88
2021/01/08 07:01:56;;;;;;;28.33;16.00;;;4.30;99.90;;;;;;5037055;28;20175;-88
2021/01/08 07:04:31;;;;;;;28.93;15.73;;;4.30;99.90;;;;;;5037691;28;20624;-88
2021/01/08 07:07:02;;;;;;;28.23;16.63;;;4.40;99.90;;;;;;5050317;28;20677;-88
2021/01/08 07:09:35;;;;;;;27.83;16.43;;;4.30;99.90;;;;;;5054203;28;20183;-88
2021/01/08 07:12:04;;;;;;;30.67;15.90;;;4.30;99.90;;;;;;5008266;28;20229;-88
2021/01/08 07:14:30;;;;;;;33.97;16.23;;;4.30;99.90;;;;;;5058071;28;20202;-88
2021/01/08 07:16:58;;;;;;;27.53;16.70;;;4.40;99.90;;;;;;5040231;28;20175;-88
2021/01/08 07:19:27;;;;;;;34.93;16.33;;;4.20;99.90;;;;;;5020495;28;20214;-88
2021/01/08 07:21:54;;;;;;;32.60;17.10;;;4.10;99.90;;;;;;5020780;28;20267;-88
2021/01/08 07:24:41;;;;;;;25.23;15.40;;;4.30;99.90;;;;;;5037409;28;20167;-88
2021/01/08 07:27:22;;;;;;;27.93;15.90;;;4.30;99.90;;;;;;5020001;28;20168;-88
2021/01/08 07:29:52;;;;;;;29.70;15.90;;;4.30;99.90;;;;;;5020628;28;20617;-88
2021/01/08 07:32:31;;;;;;;28.60;16.30;;;4.40;99.90;;;;;;5020206;28;20178;-88
2021/01/08 07:34:57;;;;;;;27.83;16.73;;;4.50;99.90;;;;;;5028286;28;20171;-88
2021/01/08 07:38:02;;;;;;;32.10;16.57;;;4.60;99.90;;;;;;5060353;28;20167;-88
2021/01/08 07:40:33;;;;;;;30.30;17.10;;;4.70;99.90;;;;;;5060427;28;20186;-88
2021/01/08 07:43:07;;;;;;;33.33;16.97;;;4.80;99.90;;;;;;5041026;28;20233;-88
2021/01/08 07:45:52;;;;;;;35.77;15.97;;;4.80;99.90;;;;;;5040277;28;20172;-89
2021/01/08 07:48:24;;;;;;;28.63;17.73;;;5.00;99.90;;;;;;5057524;28;20216;-88
2021/01/08 07:51:21;;;;;;;28.27;16.70;;;4.90;99.90;;;;;;5021026;28;20215;-89
2021/01/08 07:53:48;;;;;;;31.67;16.80;;;4.90;99.90;;;;;;5013691;28;20271;-88
2021/01/08 07:56:18;;;;;;;40.40;19.83;;;5.00;99.90;;;;;;5021191;28;20230;-89
2021/01/08 07:58:47;;;;;;;34.27;17.90;;;4.80;99.90;;;;;;5036214;28;20200;-88
2021/01/08 08:01:15;;;;;;;32.03;17.17;;;4.80;99.90;;;;;;5056765;28;20183;-88
2021/01/08 08:03:41;;;;;;;31.07;17.47;;;5.00;99.90;;;;;;5059732;28;20668;-88
2021/01/08 08:06:08;;;;;;;28.83;16.23;;;5.10;99.90;;;;;;5077391;28;20171;-88
2021/01/08 08:08:39;;;;;;;35.37;17.70;;;5.10;99.90;;;;;;5059706;28;20163;-89
2021/01/08 08:11:26;;;;;;;31.63;18.53;;;5.20;99.90;;;;;;5059203;28;20167;-88
2021/01/08 08:13:52;;;;;;;31.30;18.33;;;5.20;99.90;;;;;;5059612;28;20171;-88
2021/01/08 08:16:18;;;;;;;30.17;17.73;;;5.30;99.90;;;;;;5059078;28;20189;-89
2021/01/08 08:18:50;;;;;;;30.83;18.70;;;5.30;99.90;;;;;;5059381;28;20201;-89
2021/01/08 08:21:16;;;;;;;34.90;17.23;;;5.10;99.90;;;;;;5042730;28;20194;-88
2021/01/08 08:23:50;;;;;;;32.73;18.80;;;4.90;99.90;;;;;;5059300;28;20186;-89
2021/01/08 08:26:16;;;;;;;30.13;17.57;;;4.90;99.90;;;;;;5043791;28;20229;-89
2021/01/08 08:28:41;;;;;;;39.03;17.37;;;4.80;99.90;;;;;;5042508;28;20179;-89
2021/01/08 08:31:07;;;;;;;26.23;16.90;;;4.80;99.90;;;;;;5042699;28;20170;-89
2021/01/08 08:33:33;;;;;;;31.33;18.17;;;4.70;99.90;;;;;;5044101;28;20163;-88
2021/01/08 08:35:59;;;;;;;31.30;17.30;;;4.70;99.90;;;;;;5058463;28;20228;-88
2021/01/08 08:38:24;;;;;;;36.53;18.53;;;4.70;99.90;;;;;;5076580;28;20208;-88
2021/01/08 08:40:50;;;;;;;31.67;17.30;;;4.70;99.90;;;;;;5058734;28;20179;-88
2021/01/08 08:43:23;;;;;;;29.33;17.03;;;4.60;99.90;;;;;;5076257;28;20258;-89
2021/01/08 08:45:56;;;;;;;33.10;18.70;;;4.70;99.90;;;;;;5037070;28;20210;-89
2021/01/08 08:48:22;;;;;;;29.60;17.73;;;4.90;99.90;;;;;;5058780;28;20220;-89
2021/01/08 08:50:48;;;;;;;34.40;17.90;;;5.00;99.90;;;;;;5042199;28;20174;-89
2021/01/08 08:53:14;;;;;;;33.30;18.83;;;4.80;99.90;;;;;;5028083;28;20621;-88
2021/01/08 08:55:41;;;;;;;27.47;17.03;;;4.90;99.90;;;;;;5035559;28;20543;-89
2021/01/08 08:58:11;;;;;;;32.37;17.90;;;4.90;99.90;;;;;;5036585;28;20180;-89
2021/01/08 09:00:43;;;;;;;39.50;17.90;;;5.00;99.90;;;;;;5071958;28;20266;-90
2021/01/08 09:03:15;;;;;;;29.07;17.83;;;5.10;99.90;;;;;;5080480;28;20198;-90
2021/01/08 09:05:41;;;;;;;33.13;17.70;;;5.30;99.90;;;;;;5058050;28;20187;-90
2021/01/08 09:08:40;;;;;;;28.47;16.57;;;5.40;99.90;;;;;;5049900;28;20191;-90
2021/01/08 09:11:33;;;;;;;30.37;17.30;;;5.50;99.90;;;;;;5032083;28;20178;-89
2021/01/08 09:14:02;;;;;;;33.17;16.23;;;5.60;99.90;;;;;;5056458;28;20177;-89
2021/01/08 09:16:55;;;;;;;32.23;16.50;;;5.70;99.90;;;;;;5066643;28;20151;-89
2021/01/08 09:19:31;;;;;;;32.27;16.20;;;5.80;99.90;;;;;;5079386;28;20251;-90
2021/01/08 09:21:57;;;;;;;32.53;18.17;;;6.10;99.90;;;;;;5076977;28;20181;-89
2021/01/08 09:24:30;;;;;;;28.73;17.60;;;6.00;99.90;;;;;;5054247;28;20179;-89
2021/01/08 09:27:00;;;;;;;29.80;18.57;;;6.20;99.90;;;;;;5057050;28;20174;-89
2021/01/08 09:29:30;;;;;;;28.93;16.57;;;6.00;99.90;;;;;;5057857;28;20190;-89
2021/01/08 09:31:57;;;;;;;29.30;17.53;;;6.00;99.90;;;;;;5025079;28;20232;-89
2021/01/08 09:34:23;;;;;;;32.77;16.60;;;6.10;99.90;;;;;;5044896;28;20184;-89
2021/01/08 09:36:54;;;;;;;34.17;16.97;;;6.00;99.90;;;;;;5021272;28;20214;-89
2021/01/08 09:39:22;;;;;;;32.70;17.23;;;5.70;99.90;;;;;;5037457;28;20285;-88
2021/01/08 09:42:01;;;;;;;28.93;16.27;;;5.70;99.90;;;;;;5017720;28;20180;-89
2021/01/08 09:44:36;;;;;;;26.97;16.80;;;6.00;99.90;;;;;;5020073;28;20234;-89
2021/01/08 09:47:09;;;;;;;39.07;18.30;;;5.80;99.90;;;;;;5043228;28;20539;-89
2021/01/08 09:49:52;;;;;;;31.20;17.27;;;6.00;99.90;;;;;;5037633;28;20171;-89
2021/01/08 09:52:26;;;;;;;34.90;17.70;;;6.10;99.90;;;;;;5036983;28;20206;-88
2021/01/08 09:54:54;;;;;;;26.80;16.50;;;6.20;99.90;;;;;;5036873;28;20167;-86
2021/01/08 09:57:43;;;;;;;26.60;15.50;;;6.40;99.90;;;;;;5036845;28;20168;-87
2021/01/08 10:00:10;;;;;;;28.07;15.60;;;6.40;99.90;;;;;;5036286;28;20674;-86
2021/01/08 10:02:40;;;;;;;28.20;15.73;;;6.30;99.90;;;;;;5020360;28;20233;-87
2021/01/08 10:05:08;;;;;;;26.77;14.80;;;6.20;99.90;;;;;;5036645;28;20199;-86
2021/01/08 10:07:42;;;;;;;28.73;16.63;;;6.10;99.90;;;;;;5039526;28;20536;-86
2021/01/08 10:10:10;;;;;;;30.63;15.10;;;6.10;99.90;;;;;;5052567;28;20172;-88
2021/01/08 10:12:52;;;;;;;24.77;14.37;;;6.10;99.90;;;;;;5036798;28;20176;-90
2021/01/08 10:15:19;;;;;;;22.60;13.50;;;5.90;99.90;;;;;;5000786;28;20171;-89
2021/01/08 10:17:52;;;;;;;30.87;14.03;;;5.70;99.90;;;;;;5001083;28;20218;-90
2021/01/08 10:20:20;;;;;;;22.77;14.10;;;5.60;99.90;;;;;;5035220;28;20706;-90
2021/01/08 10:22:47;;;;;;;23.57;13.63;;;5.80;99.90;;;;;;5037565;28;20194;-90
2021/01/08 10:25:22;;;;;;;21.73;14.23;;;5.90;99.90;;;;;;5004744;28;20179;-90
2021/01/08 10:27:48;;;;;;;25.87;13.93;;;6.00;99.90;;;;;;5064493;28;20223;-91
2021/01/08 10:30:14;;;;;;;32.87;15.03;;;5.90;99.90;;;;;;5044922;28;20183;-90
2021/01/08 10:32:48;;;;;;;19.67;14.10;;;6.00;99.90;;;;;;5013686;28;20187;-90
2021/01/08 10:35:15;;;;;;;27.67;15.10;;;6.30;99.90;;;;;;5023194;28;20170;-90
2021/01/08 10:37:41;;;;;;;22.90;14.17;;;6.30;99.90;;;;;;5052439;28;20254;-90
2021/01/08 10:40:07;;;;;;;23.27;14.37;;;6.40;99.90;;;;;;4999736;28;20295;-90
2021/01/08 10:42:33;;;;;;;25.87;14.47;;;6.30;99.90;;;;;;5000727;28;20198;-90
2021/01/08 10:44:59;;;;;;;24.50;13.43;;;6.20;99.90;;;;;;4984573;28;20168;-90
2021/01/08 10:47:24;;;;;;;31.10;14.30;;;6.30;99.90;;;;;;5025019;28;20174;-90
2021/01/08 10:49:51;;;;;;;22.43;14.20;;;6.30;99.90;;;;;;4992230;28;20181;-90
2021/01/08 10:52:17;;;;;;;19.50;13.27;;;6.30;99.90;;;;;;5040198;28;20175;-90
2021/01/08 10:54:43;;;;;;;24.87;14.23;;;6.30;99.90;;;;;;5023956;28;20197;-90
2021/01/08 10:57:09;;;;;;;22.87;13.73;;;6.40;99.90;;;;;;5056852;28;20174;-90
2021/01/08 10:59:34;;;;;;;20.93;12.67;;;6.80;99.90;;;;;;5023989;28;20226;-90
2021/01/08 11:02:00;;;;;;;20.47;13.33;;;7.20;99.90;;;;;;5058546;28;20271;-89
2021/01/08 11:04:26;;;;;;;23.53;13.17;;;7.70;99.90;;;;;;5035745;28;20176;-88
2021/01/08 11:06:58;;;;;;;22.57;13.07;;;7.70;99.90;;;;;;5004884;28;20195;-88
2021/01/08 11:09:24;;;;;;;20.30;13.10;;;7.30;99.90;;;;;;5020010;28;20200;-89
2021/01/08 11:11:50;;;;;;;20.27;13.63;;;7.30;99.90;;;;;;5017557;28;20229;-89
2021/01/08 11:14:16;;;;;;;22.93;12.83;;;7.40;99.90;;;;;;5015532;28;20638;-89
2021/01/08 11:16:41;;;;;;;21.93;13.00;;;7.60;99.90;;;;;;5016780;28;20207;-90
2021/01/08 11:19:07;;;;;;;20.47;12.47;;;7.70;99.90;;;;;;5022976;28;20234;-90
2021/01/08 11:21:32;;;;;;;21.70;12.43;;;7.80;99.90;;;;;;5031383;28;20187;-89
2021/01/08 11:23:58;;;;;;;20.53;12.97;;;7.60;99.90;;;;;;5022052;28;20613;-89
2021/01/08 11:26:28;;;;;;;21.63;12.77;;;7.40;99.90;;;;;;5037062;28;20213;-90
2021/01/08 11:28:54;;;;;;;21.27;13.90;;;7.30;99.90;;;;;;5057672;28;20175;-92
2021/01/08 11:31:20;;;;;;;22.63;13.60;;;7.20;99.90;;;;;;5058314;28;20174;-91
2021/01/08 11:33:46;;;;;;;20.03;13.83;;;7.00;99.90;;;;;;5064438;28;20187;-90
2021/01/08 11:36:13;;;;;;;21.70;13.30;;;6.80;99.90;;;;;;5056456;28;20167;-90
2021/01/08 11:38:39;;;;;;;24.60;13.67;;;6.90;99.90;;;;;;5020801;28;20210;-91
2021/01/08 11:41:07;;;;;;;23.33;14.17;;;6.70;99.90;;;;;;5022024;28;20606;-90
2021/01/08 11:43:32;;;;;;;22.87;12.73;;;6.60;99.90;;;;;;5036949;28;20175;-90
2021/01/08 11:45:58;;;;;;;22.43;13.73;;;6.60;99.90;;;;;;5021406;28;20183;-91
2021/01/08 11:48:24;;;;;;;22.07;13.57;;;6.60;99.90;;;;;;5039700;28;20175;-90
2021/01/08 11:50:49;;;;;;;17.23;12.73;;;6.60;99.90;;;;;;5040633;28;20182;-90
2021/01/08 11:53:17;;;;;;;30.20;15.10;;;6.80;99.90;;;;;;5029382;28;20199;-90
2021/01/08 11:55:44;;;;;;;21.97;13.37;;;7.00;99.90;;;;;;5017745;28;20188;-90
2021/01/08 11:58:10;;;;;;;18.03;13.20;;;7.50;99.90;;;;;;5027329;28;20239;-90
2021/01/08 12:00:35;;;;;;;19.90;12.03;;;8.10;99.90;;;;;;5004933;28;20207;-90
2021/01/08 12:03:01;;;;;;;22.30;12.47;;;8.30;99.90;;;;;;5042976;28;20179;-90
2021/01/08 12:05:27;;;;;;;22.90;12.03;;;8.10;99.90;;;;;;5043968;28;20553;-90
2021/01/08 12:07:52;;;;;;;21.87;12.60;;;8.00;99.90;;;;;;5059940;28;20190;-90
2021/01/08 12:10:18;;;;;;;16.73;11.93;;;8.20;99.90;;;;;;5043573;28;20182;-90
2021/01/08 12:12:47;;;;;;;13.23;10.60;;;8.60;99.90;;;;;;5060544;28;20183;-91
2021/01/08 12:15:13;;;;;;;16.67;11.13;;;8.90;99.90;;;;;;5043940;28;20183;-91
2021/01/08 12:17:42;;;;;;;22.70;11.33;;;8.90;99.90;;;;;;5061218;28;20171;-91
2021/01/08 12:20:12;;;;;;;19.17;11.80;;;8.60;99.90;;;;;;5060569;28;20209;-92
2021/01/08 12:22:38;;;;;;;15.77;11.47;;;8.50;99.90;;;;;;5045692;28;20179;-91
2021/01/08 12:25:05;;;;;;;15.10;11.30;;;8.40;99.90;;;;;;5007452;28;20187;-91
2021/01/08 12:27:30;;;;;;;16.17;11.50;;;8.30;99.90;;;;;;5003752;28;20176;-91
2021/01/08 12:29:56;;;;;;;16.70;10.63;;;8.20;99.90;;;;;;4987423;28;20230;-91
2021/01/08 12:32:21;;;;;;;24.13;12.23;;;8.30;99.90;;;;;;5020379;28;20180;-91
2021/01/08 12:34:47;;;;;;;21.37;11.47;;;8.20;99.90;;;;;;5020570;28;20210;-91
2021/01/08 12:37:13;;;;;;;14.43;10.93;;;8.20;99.90;;;;;;5039040;28;20182;-91
2021/01/08 12:39:39;;;;;;;15.67;11.00;;;8.10;99.90;;;;;;5039896;28;20559;-91
2021/01/08 12:42:05;;;;;;;15.03;11.87;;;8.00;99.90;;;;;;5008606;28;20183;-93
2021/01/08 12:44:31;;;;;;;17.30;10.90;;;7.80;99.90;;;;;;5026993;28;20207;-91
2021/01/08 12:46:59;;;;;;;19.03;12.03;;;7.80;99.90;;;;;;5042115;28;20167;-89